Time;durP1;ratioP1;P1;durP2;ratioP2;P2;SDS_P1;SDS_P2;PMS_P1;PMS_P2;Temp;Humidity;BMP_temperature;BMP_pressure;BME280_temperature;BME280_humidity;BME280_pressure;Samples;Min_cycle;Max_cycle;Signal;HPM_P1;HPM_P2
2023/01/23 00:01:40;;;;;;;5.75;4.10;;;;;;;;;;5017007;28;20441;-77
2023/01/23 00:04:05;;;;;;;5.18;3.80;;;;;;;;;;5032690;28;20037;-78
2023/01/23 00:06:31;;;;;;;4.25;3.50;;;;;;;;;;5019986;28;20546;-78
2023/01/23 00:08:56;;;;;;;4.50;3.40;;;;;;;;;;5031759;28;20032;-78
2023/01/23 00:11:23;;;;;;;5.57;3.72;;;;;;;;;;5034094;28;20156;-77
2023/01/23 00:13:49;;;;;;;5.88;3.95;;;;;;;;;;5010238;28;20057;-78
2023/01/23 00:16:18;;;;;;;6.07;3.95;;;;;;;;;;5026815;28;20037;-77
2023/01/23 00:18:44;;;;;;;5.20;3.55;;;;;;;;;;5030917;28;20029;-78
2023/01/23 00:21:10;;;;;;;4.78;3.63;;;;;;;;;;5028442;28;20752;-78
2023/01/23 00:23:36;;;;;;;;;;;;;;;;;;5030845;28;20041;-78
2023/01/23 00:26:04;;;;;;;5.78;3.85;;;;;;;;;;5031000;28;19943;-78
2023/01/23 00:28:30;;;;;;;6.15;3.97;;;;;;;;;;5028028;28;20440;-78
2023/01/23 00:31:08;;;;;;;5.82;4.10;;;;;;;;;;5029383;28;20123;-78
2023/01/23 00:33:34;;;;;;;5.28;3.95;;;;;;;;;;5029674;28;20443;-79
2023/01/23 00:35:59;;;;;;;6.57;3.95;;;;;;;;;;5030782;28;20036;-78
2023/01/23 00:38:25;;;;;;;5.93;4.20;;;;;;;;;;5030591;28;20116;-78
2023/01/23 00:40:50;;;;;;;6.53;4.28;;;;;;;;;;5030742;28;20485;-78
2023/01/23 00:43:16;;;;;;;6.18;4.72;;;;;;;;;;5040039;28;20037;-78
2023/01/23 00:45:42;;;;;;;7.60;5.57;;;;;;;;;;5037010;28;20496;-78
2023/01/23 00:48:07;;;;;;;8.02;5.82;;;;;;;;;;5023983;28;20837;-78
2023/01/23 00:50:32;;;;;;;11.00;7.15;;;;;;;;;;5028324;28;20075;-78
2023/01/23 00:52:58;;;;;;;11.50;7.47;;;;;;;;;;5033015;28;20079;-78
2023/01/23 00:55:23;;;;;;;10.88;6.95;;;;;;;;;;5023014;28;20029;-78
2023/01/23 00:57:49;;;;;;;11.68;7.22;;;;;;;;;;5026936;28;20129;-78
2023/01/23 01:00:15;;;;;;;9.45;5.82;;;;;;;;;;5041682;28;20029;-78
2023/01/23 01:02:40;;;;;;;11.55;6.97;;;;;;;;;;5039101;28;20120;-78
2023/01/23 01:05:06;;;;;;;10.27;6.50;;;;;;;;;;5012858;28;20033;-78
2023/01/23 01:07:31;;;;;;;9.30;7.07;;;;;;;;;;5028874;28;20033;-78
2023/01/23 01:09:57;;;;;;;9.07;6.35;;;;;;;;;;5030108;28;20095;-78
2023/01/23 01:12:22;;;;;;;10.20;6.90;;;;;;;;;;5030365;28;20037;-77
2023/01/23 01:14:48;;;;;;;11.30;6.90;;;;;;;;;;5030484;28;20100;-77
2023/01/23 01:17:13;;;;;;;9.52;6.40;;;;;;;;;;5029017;28;20455;-78
2023/01/23 01:19:39;;;;;;;10.88;6.90;;;;;;;;;;5029447;28;20029;-78
2023/01/23 01:22:05;;;;;;;11.73;7.63;;;;;;;;;;5033811;28;20486;-77
2023/01/23 01:24:30;;;;;;;9.52;6.65;;;;;;;;;;5029365;28;20819;-77
2023/01/23 01:26:56;;;;;;;11.68;7.90;;;;;;;;;;5029291;28;20037;-77
2023/01/23 01:29:21;;;;;;;12.23;7.97;;;;;;;;;;5033630;28;20107;-78
2023/01/23 01:31:47;;;;;;;13.45;8.10;;;;;;;;;;5033033;28;20406;-76
2023/01/23 01:34:12;;;;;;;11.57;7.20;;;;;;;;;;5033913;28;20156;-77
2023/01/23 01:36:38;;;;;;;10.18;7.07;;;;;;;;;;5031432;28;20064;-78
2023/01/23 01:39:03;;;;;;;10.73;7.15;;;;;;;;;;5030895;28;20429;-77
2023/01/23 01:41:29;;;;;;;10.77;7.22;;;;;;;;;;5013142;28;20033;-78
2023/01/23 01:43:56;;;;;;;11.18;7.60;;;;;;;;;;5016092;28;20024;-78
2023/01/23 01:46:22;;;;;;;11.80;7.50;;;;;;;;;;5032592;28;20041;-78
2023/01/23 01:48:47;;;;;;;;;;;;;;;;;;5033044;28;20120;-78
2023/01/23 01:51:16;;;;;;;12.35;8.23;;;;;;;;;;5039671;28;20004;-78
2023/01/23 01:53:41;;;;;;;14.40;8.90;;;;;;;;;;5034801;28;20029;-78
2023/01/23 01:56:08;;;;;;;16.05;10.77;;;;;;;;;;5032263;28;20043;-78
2023/01/23 01:58:34;;;;;;;20.77;12.13;;;;;;;;;;5019636;28;20017;-78
2023/01/23 02:00:59;;;;;;;21.90;11.80;;;;;;;;;;5024030;28;20033;-79
2023/01/23 02:03:25;;;;;;;24.27;13.77;;;;;;;;;;5032281;28;20037;-77
2023/01/23 02:05:50;;;;;;;23.70;13.75;;;;;;;;;;5033705;28;20037;-78
2023/01/23 02:08:23;;;;;;;29.23;14.90;;;;;;;;;;5015850;28;20856;-78
2023/01/23 02:10:50;;;;;;;23.98;14.45;;;;;;;;;;5015834;28;20048;-78
2023/01/23 02:13:19;;;;;;;25.30;14.13;;;;;;;;;;5032006;28;20444;-78
2023/01/23 02:15:45;;;;;;;28.30;15.90;;;;;;;;;;5031994;28;20125;-77
2023/01/23 02:18:10;;;;;;;35.58;17.23;;;;;;;;;;5033250;28;20104;-77
2023/01/23 02:20:36;;;;;;;37.72;19.58;;;;;;;;;;5015949;28;20041;-78
2023/01/23 02:23:19;;;;;;;33.90;18.38;;;;;;;;;;5015265;28;20029;-78
2023/01/23 02:25:58;;;;;;;41.88;20.77;;;;;;;;;;5031800;28;20168;-78
2023/01/23 02:28:40;;;;;;;41.65;21.73;;;;;;;;;;5012201;28;20093;-78
2023/01/23 02:31:05;;;;;;;43.78;21.77;;;;;;;;;;5009119;28;20128;-78
2023/01/23 02:33:32;;;;;;;41.40;21.83;;;;;;;;;;5020441;28;20392;-77
2023/01/23 02:35:58;;;;;;;44.80;22.85;;;;;;;;;;5032921;28;20039;-78
2023/01/23 02:38:25;;;;;;;44.28;23.33;;;;;;;;;;5030972;28;20400;-79
2023/01/23 02:40:53;;;;;;;44.78;23.00;;;;;;;;;;5023951;28;20413;-76
2023/01/23 02:43:21;;;;;;;42.05;22.23;;;;;;;;;;5014318;28;20021;-79
2023/01/23 02:45:54;;;;;;;40.67;21.20;;;;;;;;;;5029055;28;20176;-78
2023/01/23 02:48:20;;;;;;;44.25;22.80;;;;;;;;;;5031488;28;20120;-78
2023/01/23 02:50:46;;;;;;;41.25;22.00;;;;;;;;;;5033810;28;20058;-78
2023/01/23 02:53:12;;;;;;;39.78;21.33;;;;;;;;;;5032434;28;20033;-77
2023/01/23 02:55:41;;;;;;;41.65;21.67;;;;;;;;;;5048151;28;20029;-80
2023/01/23 03:00:50;;;;;;;44.10;22.17;;;;;;;;;;5043913;28;20038;-79
2023/01/23 03:03:16;;;;;;;42.08;21.73;;;;;;;;;;5012917;28;20037;-78
2023/01/23 03:05:41;;;;;;;44.63;23.23;;;;;;;;;;5024538;28;20037;-77
2023/01/23 03:08:07;;;;;;;39.55;21.60;;;;;;;;;;5031023;28;20785;-78
2023/01/23 03:10:32;;;;;;;42.47;22.30;;;;;;;;;;5047752;28;20452;-78
2023/01/23 03:13:02;;;;;;;39.50;20.95;;;;;;;;;;5030846;28;20029;-78
2023/01/23 03:15:28;;;;;;;42.40;22.38;;;;;;;;;;5022822;28;20088;-78
2023/01/23 03:17:54;;;;;;;;;;;;;;;;;;4998711;28;20041;-78
2023/01/23 03:20:22;;;;;;;38.25;19.35;;;;;;;;;;5029905;28;20404;-78
2023/01/23 03:22:48;;;;;;;38.95;20.55;;;;;;;;;;5030577;28;20018;-78
2023/01/23 03:25:13;;;;;;;39.38;19.92;;;;;;;;;;5037291;28;20041;-79
2023/01/23 03:27:39;;;;;;;37.88;20.60;;;;;;;;;;5022229;28;20095;-77
2023/01/23 03:30:14;;;;;;;43.75;20.27;;;;;;;;;;5030791;28;20029;-77
2023/01/23 03:32:44;;;;;;;42.65;20.88;;;;;;;;;;5029708;28;20033;-78
2023/01/23 03:35:12;;;;;;;38.97;19.88;;;;;;;;;;5030778;28;20041;-76
2023/01/23 03:37:39;;;;;;;39.85;20.50;;;;;;;;;;5035362;28;20029;-77
2023/01/23 03:42:50;;;;;;;39.15;20.60;;;;;;;;;;5040955;28;20041;-77
2023/01/23 03:45:22;;;;;;;40.88;20.52;;;;;;;;;;5030331;28;20388;-76
2023/01/23 03:47:48;;;;;;;40.92;20.77;;;;;;;;;;5011676;28;20034;-78
2023/01/23 03:50:13;;;;;;;39.85;20.75;;;;;;;;;;5029285;28;20523;-78
2023/01/23 03:52:39;;;;;;;41.83;21.33;;;;;;;;;;5047007;28;20025;-79
2023/01/23 03:55:05;;;;;;;42.08;20.45;;;;;;;;;;5032487;28;20037;-79
2023/01/23 03:57:31;;;;;;;40.35;20.35;;;;;;;;;;5021083;28;20045;-77
2023/01/23 04:00:16;;;;;;;39.33;19.73;;;;;;;;;;5033557;28;20099;-78
2023/01/23 04:02:48;;;;;;;39.00;19.67;;;;;;;;;;5032459;28;20032;-77
2023/01/23 04:05:14;;;;;;;34.65;19.40;;;;;;;;;;5033329;28;20033;-77
2023/01/23 04:07:39;;;;;;;38.05;19.60;;;;;;;;;;5022824;28;20033;-79
2023/01/23 04:10:05;;;;;;;35.83;19.30;;;;;;;;;;5042747;28;20431;-79
2023/01/23 04:12:30;;;;;;;40.65;21.10;;;;;;;;;;5036589;28;20060;-78
2023/01/23 04:14:56;;;;;;;;;;;;;;;;;;5030168;28;20049;-79
2023/01/23 04:17:22;;;;;;;35.50;18.20;;;;;;;;;;5030005;28;20007;-79
2023/01/23 04:19:47;;;;;;;35.67;18.83;;;;;;;;;;5022759;28;20155;-80
2023/01/23 04:22:14;;;;;;;;;;;;;;;;;;5023682;28;20530;-77
2023/01/23 04:24:44;;;;;;;39.72;19.15;;;;;;;;;;5049979;28;19913;-78
2023/01/23 04:27:10;;;;;;;35.25;20.42;;;;;;;;;;5035232;28;20411;-78
2023/01/23 04:29:36;;;;;;;36.08;19.83;;;;;;;;;;5046250;28;20069;-78
2023/01/23 04:32:03;;;;;;;29.02;15.68;;;;;;;;;;5037980;28;20033;-77
2023/01/23 04:34:31;;;;;;;32.13;16.25;;;;;;;;;;5021066;28;20033;-77
2023/01/23 04:36:57;;;;;;;29.13;15.38;;;;;;;;;;5029397;28;20033;-77
2023/01/23 04:39:23;;;;;;;30.40;13.98;;;;;;;;;;5045617;28;20526;-78
2023/01/23 04:41:49;;;;;;;;;;;;;;;;;;5029650;28;20523;-78
2023/01/23 04:44:26;;;;;;;25.02;13.65;;;;;;;;;;5045650;28;19909;-78
2023/01/23 04:47:10;;;;;;;24.80;13.82;;;;;;;;;;5040814;28;20045;-78
2023/01/23 04:49:37;;;;;;;26.70;14.40;;;;;;;;;;5024566;28;20032;-77
2023/01/23 04:52:03;;;;;;;23.77;12.68;;;;;;;;;;5036997;28;20021;-76
2023/01/23 04:54:31;;;;;;;23.52;13.23;;;;;;;;;;5046107;28;20838;-78
2023/01/23 04:56:58;;;;;;;25.20;12.70;;;;;;;;;;5024822;28;20479;-77
2023/01/23 04:59:24;;;;;;;23.88;13.52;;;;;;;;;;5012900;28;20029;-79
2023/01/23 05:01:50;;;;;;;22.10;12.73;;;;;;;;;;5029134;28;20026;-78
2023/01/23 05:04:16;;;;;;;22.45;12.90;;;;;;;;;;5033064;28;20037;-79
2023/01/23 05:06:44;;;;;;;22.15;13.05;;;;;;;;;;5029340;28;20384;-79
2023/01/23 05:09:12;;;;;;;20.52;12.55;;;;;;;;;;5040796;28;20195;-78
2023/01/23 05:11:42;;;;;;;22.98;12.63;;;;;;;;;;5032971;28;20104;-78
2023/01/23 05:14:11;;;;;;;23.88;12.55;;;;;;;;;;5042688;28;20530;-78
2023/01/23 05:16:36;;;;;;;26.42;12.32;;;;;;;;;;5019322;28;20033;-77
2023/01/23 05:19:13;;;;;;;25.02;12.70;;;;;;;;;;5030503;28;20115;-77
2023/01/23 05:21:39;;;;;;;24.08;12.20;;;;;;;;;;5048091;28;20083;-75
2023/01/23 05:24:09;;;;;;;19.88;11.65;;;;;;;;;;5046404;28;20083;-76
2023/01/23 05:26:35;;;;;;;23.02;11.85;;;;;;;;;;5012854;28;20496;-79
2023/01/23 05:29:01;;;;;;;20.58;12.25;;;;;;;;;;5020045;28;20032;-78
2023/01/23 05:31:27;;;;;;;18.67;11.43;;;;;;;;;;5034875;28;20564;-78
2023/01/23 05:34:19;;;;;;;19.23;11.43;;;;;;;;;;5025158;28;20141;-78
2023/01/23 05:36:45;;;;;;;21.08;11.65;;;;;;;;;;5031936;28;20029;-77
2023/01/23 05:39:11;;;;;;;21.02;12.23;;;;;;;;;;5033862;28;20032;-78
2023/01/23 05:41:37;;;;;;;25.85;11.80;;;;;;;;;;5032055;28;20516;-78
2023/01/23 05:44:34;;;;;;;21.27;11.60;;;;;;;;;;5021303;28;20097;-76
2023/01/23 05:47:18;;;;;;;23.73;12.68;;;;;;;;;;5032099;28;20068;-78
2023/01/23 05:49:44;;;;;;;21.08;11.20;;;;;;;;;;5048862;28;20512;-78
2023/01/23 05:52:11;;;;;;;22.70;11.55;;;;;;;;;;5033447;28;20103;-78
2023/01/23 05:54:37;;;;;;;20.98;11.55;;;;;;;;;;5015996;28;20033;-78
2023/01/23 05:57:02;;;;;;;17.20;10.60;;;;;;;;;;5026806;28;20087;-78
2023/01/23 06:00:03;;;;;;;21.75;10.85;;;;;;;;;;4999519;28;20548;-78
2023/01/23 06:02:46;;;;;;;19.02;11.15;;;;;;;;;;5035368;28;20033;-78
2023/01/23 06:05:39;;;;;;;21.02;11.05;;;;;;;;;;5048102;28;20049;-78
2023/01/23 06:08:11;;;;;;;17.63;10.45;;;;;;;;;;5033875;28;20038;-79
2023/01/23 06:10:39;;;;;;;17.95;10.35;;;;;;;;;;5017972;28;20554;-78
2023/01/23 06:13:05;;;;;;;18.63;10.70;;;;;;;;;;5047958;28;20202;-78
2023/01/23 06:15:30;;;;;;;20.40;10.55;;;;;;;;;;5031245;28;20041;-78
2023/01/23 06:17:58;;;;;;;19.67;10.65;;;;;;;;;;5048263;28;20055;-79
2023/01/23 06:20:25;;;;;;;20.38;10.20;;;;;;;;;;5031211;28;20163;-79
2023/01/23 06:22:50;;;;;;;22.17;12.45;;;;;;;;;;5037877;28;20037;-78
2023/01/23 06:25:17;;;;;;;17.90;8.90;;;;;;;;;;5031086;28;20400;-78
2023/01/23 06:27:42;;;;;;;19.02;9.85;;;;;;;;;;5031472;28;20071;-78
2023/01/23 06:30:08;;;;;;;;;;;;;;;;;;5015019;28;20060;-78
2023/01/23 06:32:45;;;;;;;17.23;9.70;;;;;;;;;;5047550;28;19916;-79
2023/01/23 06:35:13;;;;;;;16.27;10.20;;;;;;;;;;5030849;28;20045;-79
2023/01/23 06:37:40;;;;;;;18.83;9.90;;;;;;;;;;5031441;28;20029;-78
2023/01/23 06:40:11;;;;;;;19.00;10.73;;;;;;;;;;5014866;28;20037;-78
2023/01/23 06:42:39;;;;;;;17.30;10.30;;;;;;;;;;5047476;28;20036;-78
2023/01/23 06:45:05;;;;;;;20.02;10.93;;;;;;;;;;5030836;28;20022;-78
2023/01/23 06:47:31;;;;;;;19.08;10.27;;;;;;;;;;5030902;28;20041;-78
2023/01/23 06:50:00;;;;;;;16.70;9.98;;;;;;;;;;5023035;28;20495;-77
2023/01/23 06:52:28;;;;;;;18.73;10.05;;;;;;;;;;5030944;28;20037;-78
2023/01/23 06:54:54;;;;;;;17.23;10.38;;;;;;;;;;5047260;28;20373;-78
2023/01/23 06:57:19;;;;;;;17.30;9.73;;;;;;;;;;5023017;28;20447;-77
2023/01/23 06:59:47;;;;;;;16.17;9.73;;;;;;;;;;5025444;28;20144;-79
2023/01/23 07:02:14;;;;;;;17.73;9.57;;;;;;;;;;5014379;28;20033;-79
2023/01/23 07:04:59;;;;;;;17.60;9.55;;;;;;;;;;5046386;28;20038;-78
2023/01/23 07:07:25;;;;;;;;;;;;;;;;;;5038194;28;20456;-78
2023/01/23 07:09:51;;;;;;;20.98;10.63;;;;;;;;;;5031870;28;19999;-78
2023/01/23 07:12:24;;;;;;;20.02;10.88;;;;;;;;;;5036184;28;20056;-79
2023/01/23 07:14:50;;;;;;;17.17;10.52;;;;;;;;;;5029982;28;20053;-78
2023/01/23 07:17:20;;;;;;;19.25;11.07;;;;;;;;;;5014818;28;20033;-78
2023/01/23 07:19:46;;;;;;;20.88;11.65;;;;;;;;;;5031475;28;20203;-79
2023/01/23 07:22:18;;;;;;;19.73;9.93;;;;;;;;;;5014361;28;20040;-78
2023/01/23 07:24:43;;;;;;;20.45;11.45;;;;;;;;;;5030264;28;20030;-78
2023/01/23 07:27:08;;;;;;;18.92;10.60;;;;;;;;;;5030615;28;20025;-79
2023/01/23 07:29:34;;;;;;;20.67;10.43;;;;;;;;;;5031380;28;20355;-78
2023/01/23 07:32:02;;;;;;;22.00;11.50;;;;;;;;;;5038959;28;20033;-79
2023/01/23 07:34:28;;;;;;;24.95;13.05;;;;;;;;;;5033735;28;20057;-77
2023/01/23 07:36:53;;;;;;;27.10;15.77;;;;;;;;;;5037059;28;20080;-78
2023/01/23 07:39:19;;;;;;;24.85;13.55;;;;;;;;;;5046533;28;20175;-78
2023/01/23 07:41:44;;;;;;;24.70;13.02;;;;;;;;;;5029716;28;20036;-78
2023/01/23 07:44:16;;;;;;;22.77;13.10;;;;;;;;;;5010833;28;20041;-78
2023/01/23 07:46:42;;;;;;;24.13;11.65;;;;;;;;;;5030978;28;20053;-79
2023/01/23 07:49:07;;;;;;;19.98;11.27;;;;;;;;;;5029853;28;20099;-78
2023/01/23 07:51:33;;;;;;;19.60;11.18;;;;;;;;;;5030896;28;20032;-78
2023/01/23 07:53:58;;;;;;;21.08;11.48;;;;;;;;;;5031156;28;20033;-78
2023/01/23 07:56:24;;;;;;;19.73;11.02;;;;;;;;;;5013002;28;20441;-78
2023/01/23 07:58:50;;;;;;;25.63;11.18;;;;;;;;;;5028840;28;20447;-78
2023/01/23 08:01:15;;;;;;;22.27;11.70;;;;;;;;;;5030752;28;20033;-80
2023/01/23 08:03:41;;;;;;;28.33;12.50;;;;;;;;;;5030660;28;20032;-79
2023/01/23 08:06:06;;;;;;;23.08;11.60;;;;;;;;;;5029478;28;20477;-78
2023/01/23 08:08:32;;;;;;;21.73;11.70;;;;;;;;;;5030464;28;20029;-79
2023/01/23 08:10:57;;;;;;;22.35;12.38;;;;;;;;;;5030471;28;20033;-78
2023/01/23 08:13:23;;;;;;;26.92;12.95;;;;;;;;;;5045905;28;20128;-78
2023/01/23 08:15:48;;;;;;;22.08;11.98;;;;;;;;;;5045994;28;20488;-78
2023/01/23 08:18:14;;;;;;;24.77;12.13;;;;;;;;;;5028612;28;20029;-78
2023/01/23 08:20:39;;;;;;;22.40;11.50;;;;;;;;;;5057383;28;20051;-79
2023/01/23 08:23:05;;;;;;;25.85;12.45;;;;;;;;;;5030500;28;20048;-78
2023/01/23 08:25:30;;;;;;;20.15;11.25;;;;;;;;;;5030409;28;20037;-78
2023/01/23 08:27:56;;;;;;;20.67;11.13;;;;;;;;;;5030297;28;20033;-78
2023/01/23 08:30:21;;;;;;;23.48;11.60;;;;;;;;;;5030684;28;20064;-77
2023/01/23 08:32:46;;;;;;;26.80;13.07;;;;;;;;;;5039969;28;20032;-79
2023/01/23 08:35:12;;;;;;;26.00;12.65;;;;;;;;;;5028927;28;20033;-78
2023/01/23 08:37:39;;;;;;;24.95;13.13;;;;;;;;;;5029016;28;20457;-80
2023/01/23 08:40:05;;;;;;;23.15;12.90;;;;;;;;;;5029124;28;20041;-78
2023/01/23 08:42:31;;;;;;;23.85;12.73;;;;;;;;;;5029725;28;20025;-79
2023/01/23 08:44:56;;;;;;;25.33;12.07;;;;;;;;;;5037657;28;20393;-78
2023/01/23 08:47:22;;;;;;;25.30;12.18;;;;;;;;;;5045424;28;20040;-79
2023/01/23 08:49:48;;;;;;;24.95;13.10;;;;;;;;;;5012667;28;20033;-79
2023/01/23 08:52:13;;;;;;;22.52;12.00;;;;;;;;;;5025783;28;20103;-78
2023/01/23 08:54:39;;;;;;;23.17;12.25;;;;;;;;;;5029003;28;20033;-78
2023/01/23 08:57:04;;;;;;;22.27;12.73;;;;;;;;;;5028371;28;20044;-79
2023/01/23 08:59:30;;;;;;;30.38;13.43;;;;;;;;;;5045455;28;20125;-78
2023/01/23 09:01:55;;;;;;;26.20;13.35;;;;;;;;;;5011968;28;20021;-78
2023/01/23 09:04:20;;;;;;;24.92;12.75;;;;;;;;;;5028874;28;20064;-79
2023/01/23 09:06:46;;;;;;;22.42;11.68;;;;;;;;;;5029605;28;20512;-78
2023/01/23 09:09:11;;;;;;;25.88;11.93;;;;;;;;;;5041654;28;20095;-78
2023/01/23 09:11:37;;;;;;;23.77;12.60;;;;;;;;;;5030657;28;20033;-78
2023/01/23 09:14:02;;;;;;;23.52;11.68;;;;;;;;;;5028075;28;20065;-79
2023/01/23 09:16:28;;;;;;;23.00;11.82;;;;;;;;;;5033477;28;20108;-79
2023/01/23 09:18:53;;;;;;;21.58;11.68;;;;;;;;;;5037620;28;20112;-78
2023/01/23 09:21:19;;;;;;;28.10;12.80;;;;;;;;;;5029075;28;20496;-79
2023/01/23 09:23:44;;;;;;;24.13;12.20;;;;;;;;;;5012279;28;20451;-78
2023/01/23 09:26:10;;;;;;;21.38;11.48;;;;;;;;;;5029492;28;20087;-79
2023/01/23 09:28:36;;;;;;;21.98;10.82;;;;;;;;;;5036966;28;20037;-79
2023/01/23 09:31:02;;;;;;;21.77;11.07;;;;;;;;;;5029565;28;20041;-79
2023/01/23 09:33:28;;;;;;;22.45;11.32;;;;;;;;;;5012698;28;20033;-79
2023/01/23 09:35:53;;;;;;;23.90;12.10;;;;;;;;;;5026349;28;20108;-79
2023/01/23 09:38:19;;;;;;;22.60;12.20;;;;;;;;;;5036445;28;20033;-79
2023/01/23 09:40:47;;;;;;;26.52;12.20;;;;;;;;;;5011808;28;20528;-80
2023/01/23 09:43:19;;;;;;;22.45;10.65;;;;;;;;;;5029443;28;20037;-78
2023/01/23 09:46:05;;;;;;;22.92;12.07;;;;;;;;;;5035136;28;20421;-79
2023/01/23 09:48:33;;;;;;;23.42;12.07;;;;;;;;;;5026308;28;20080;-78
2023/01/23 09:51:03;;;;;;;26.48;12.23;;;;;;;;;;5031779;28;20390;-77
2023/01/23 09:53:36;;;;;;;23.85;12.43;;;;;;;;;;5031995;28;20033;-78
2023/01/23 09:56:04;;;;;;;25.20;11.98;;;;;;;;;;5032180;28;20120;-78
2023/01/23 09:58:33;;;;;;;24.75;11.10;;;;;;;;;;5031928;28;20029;-78
2023/01/23 10:00:58;;;;;;;25.45;11.45;;;;;;;;;;5033409;28;20041;-78
2023/01/23 10:03:25;;;;;;;27.58;11.43;;;;;;;;;;5032826;28;20026;-78
2023/01/23 10:06:05;;;;;;;25.48;12.20;;;;;;;;;;5015326;28;20037;-77
2023/01/23 10:08:45;;;;;;;23.27;11.13;;;;;;;;;;5035373;28;20079;-77
2023/01/23 10:11:14;;;;;;;28.27;13.35;;;;;;;;;;5034407;28;20124;-78
2023/01/23 10:13:39;;;;;;;26.67;13.52;;;;;;;;;;5058724;28;20076;-78
2023/01/23 10:16:11;;;;;;;24.27;12.50;;;;;;;;;;5037172;28;20046;-79
2023/01/23 10:18:55;;;;;;;21.65;11.68;;;;;;;;;;5047647;28;20043;-77
2023/01/23 10:21:24;;;;;;;26.02;11.98;;;;;;;;;;5032454;28;20043;-78
2023/01/23 10:23:54;;;;;;;26.88;12.52;;;;;;;;;;5031372;28;20080;-78
2023/01/23 10:26:20;;;;;;;26.27;11.98;;;;;;;;;;5031410;28;20192;-76
2023/01/23 10:28:46;;;;;;;22.33;11.30;;;;;;;;;;5014948;28;20025;-79
2023/01/23 10:31:17;;;;;;;21.75;12.50;;;;;;;;;;5032324;28;20038;-79
2023/01/23 10:33:44;;;;;;;19.92;10.68;;;;;;;;;;5032205;28;20040;-78
2023/01/23 10:36:13;;;;;;;22.70;10.90;;;;;;;;;;5030755;28;20022;-78
2023/01/23 10:38:42;;;;;;;21.42;9.70;;;;;;;;;;5031186;28;20033;-78
2023/01/23 10:41:13;;;;;;;24.20;11.30;;;;;;;;;;5036705;28;20063;-78
2023/01/23 10:43:42;;;;;;;19.20;11.00;;;;;;;;;;5024102;28;20488;-78
2023/01/23 10:46:12;;;;;;;22.33;10.70;;;;;;;;;;5018012;28;20480;-79
2023/01/23 10:48:39;;;;;;;24.42;11.02;;;;;;;;;;5031082;28;20041;-78
2023/01/23 10:51:22;;;;;;;25.27;12.20;;;;;;;;;;5031996;28;20090;-78
2023/01/23 10:53:59;;;;;;;21.23;11.02;;;;;;;;;;5030628;28;20040;-79
2023/01/23 10:56:25;;;;;;;22.77;12.00;;;;;;;;;;5030728;28;20041;-79
2023/01/23 10:58:50;;;;;;;21.00;10.68;;;;;;;;;;5030189;28;20109;-80
2023/01/23 11:01:34;;;;;;;20.92;10.80;;;;;;;;;;5026745;28;20042;-79
2023/01/23 11:04:10;;;;;;;25.90;11.63;;;;;;;;;;5006664;28;20483;-79
2023/01/23 11:06:35;;;;;;;24.88;11.55;;;;;;;;;;5030950;28;20519;-79
2023/01/23 11:09:17;;;;;;;20.25;11.25;;;;;;;;;;5032035;28;20026;-79
2023/01/23 11:11:42;;;;;;;23.85;11.60;;;;;;;;;;5027858;28;20040;-79
2023/01/23 11:14:12;;;;;;;20.15;10.73;;;;;;;;;;5031899;28;20131;-79
2023/01/23 11:16:41;;;;;;;21.77;10.00;;;;;;;;;;5030043;28;20488;-77
2023/01/23 11:19:06;;;;;;;18.05;9.43;;;;;;;;;;5030489;28;20026;-77
2023/01/23 11:21:32;;;;;;;17.65;8.73;;;;;;;;;;5035785;28;20522;-79
2023/01/23 11:24:07;;;;;;;22.73;9.98;;;;;;;;;;5030590;28;20487;-78
2023/01/23 11:26:33;;;;;;;21.45;10.38;;;;;;;;;;5056158;28;20044;-78
2023/01/23 11:29:00;;;;;;;22.33;9.75;;;;;;;;;;5032381;28;20420;-79
2023/01/23 11:31:26;;;;;;;19.67;8.88;;;;;;;;;;5014073;28;20041;-79
2023/01/23 11:33:58;;;;;;;16.75;9.30;;;;;;;;;;5034778;28;20488;-79
2023/01/23 11:36:45;;;;;;;17.60;9.07;;;;;;;;;;5030462;28;20083;-79
2023/01/23 11:39:15;;;;;;;21.98;9.68;;;;;;;;;;5032864;28;20029;-79
2023/01/23 11:41:40;;;;;;;21.85;9.10;;;;;;;;;;5032074;28;20025;-80
2023/01/23 11:44:07;;;;;;;21.90;8.93;;;;;;;;;;5030510;28;20408;-79
2023/01/23 11:46:32;;;;;;;;;;;;;;;;;;5034977;28;20068;-80
2023/01/23 11:49:16;;;;;;;19.52;9.27;;;;;;;;;;5032422;28;20452;-80
2023/01/23 11:51:45;;;;;;;21.27;9.60;;;;;;;;;;5032807;28;20038;-79
2023/01/23 11:54:19;;;;;;;20.20;9.43;;;;;;;;;;5034011;28;20025;-79
2023/01/23 11:57:04;;;;;;;20.48;9.60;;;;;;;;;;5015436;28;20079;-78
2023/01/23 11:59:43;;;;;;;20.80;9.25;;;;;;;;;;5031049;28;20095;-79
2023/01/23 12:02:15;;;;;;;20.15;10.15;;;;;;;;;;5029684;28;20083;-78
2023/01/23 12:04:50;;;;;;;20.20;10.05;;;;;;;;;;5030712;28;20441;-79
2023/01/23 12:07:16;;;;;;;19.65;8.55;;;;;;;;;;5035984;28;20128;-79
2023/01/23 12:09:57;;;;;;;15.98;8.32;;;;;;;;;;5026230;28;20057;-79
2023/01/23 12:12:26;;;;;;;20.38;9.43;;;;;;;;;;5029731;28;20864;-80
2023/01/23 12:15:10;;;;;;;18.73;8.80;;;;;;;;;;5022178;28;20411;-80
2023/01/23 12:17:35;;;;;;;19.58;8.77;;;;;;;;;;5029608;28;20033;-79
2023/01/23 12:20:16;;;;;;;16.00;8.13;;;;;;;;;;5027658;28;20389;-79
2023/01/23 12:23:01;;;;;;;16.45;8.27;;;;;;;;;;5023425;28;20475;-79
2023/01/23 12:25:37;;;;;;;16.13;8.13;;;;;;;;;;5047524;28;20128;-79
2023/01/23 12:28:23;;;;;;;16.15;8.43;;;;;;;;;;5026163;28;20033;-78
2023/01/23 12:30:49;;;;;;;15.70;7.78;;;;;;;;;;5019702;28;20041;-79
2023/01/23 12:33:37;;;;;;;17.58;8.43;;;;;;;;;;5030865;28;20026;-79
2023/01/23 12:36:21;;;;;;;23.17;11.20;;;;;;;;;;5032982;28;20060;-77
2023/01/23 12:38:47;;;;;;;20.73;11.38;;;;;;;;;;5028991;28;20507;-79
2023/01/23 12:41:33;;;;;;;19.25;8.95;;;;;;;;;;5030336;28;20112;-77
2023/01/23 12:44:28;;;;;;;16.23;8.07;;;;;;;;;;5028735;28;20029;-78
2023/01/23 12:47:11;;;;;;;14.77;7.40;;;;;;;;;;5029246;28;20551;-79
2023/01/23 12:49:46;;;;;;;22.48;8.57;;;;;;;;;;5029925;28;20037;-79
2023/01/23 12:52:14;;;;;;;17.52;8.25;;;;;;;;;;5028030;28;20532;-79
2023/01/23 12:54:41;;;;;;;16.95;7.78;;;;;;;;;;5046273;28;20021;-80
2023/01/23 12:57:10;;;;;;;15.80;8.00;;;;;;;;;;5025330;28;20485;-79
2023/01/23 12:59:56;;;;;;;17.70;8.13;;;;;;;;;;5023348;28;20026;-79
2023/01/23 13:02:27;;;;;;;16.80;8.00;;;;;;;;;;5031282;28;20049;-79
2023/01/23 13:04:56;;;;;;;14.32;8.68;;;;;;;;;;5024677;28;20088;-79
2023/01/23 13:07:21;;;;;;;16.58;8.48;;;;;;;;;;5029240;28;20033;-78
2023/01/23 13:09:50;;;;;;;18.77;9.23;;;;;;;;;;5029039;28;20087;-77
2023/01/23 13:12:20;;;;;;;14.85;7.72;;;;;;;;;;5028986;28;20124;-80
2023/01/23 13:14:46;;;;;;;15.00;7.80;;;;;;;;;;5023901;28;20496;-77
2023/01/23 13:17:30;;;;;;;16.98;8.20;;;;;;;;;;5029545;28;20037;-77
2023/01/23 13:23:17;;;;;;;17.35;8.52;;;;;;;;;;5026656;28;20033;-79
2023/01/23 13:25:43;;;;;;;15.65;8.38;;;;;;;;;;5033313;28;20029;-81
2023/01/23 13:28:29;;;;;;;16.08;8.95;;;;;;;;;;5033903;28;20030;-80
2023/01/23 13:30:58;;;;;;;17.73;8.57;;;;;;;;;;5026181;28;20037;-79
2023/01/23 13:33:27;;;;;;;14.00;7.68;;;;;;;;;;5032382;28;20026;-79
2023/01/23 13:35:54;;;;;;;14.88;7.72;;;;;;;;;;5035109;28;20032;-79
2023/01/23 13:38:20;;;;;;;17.67;7.68;;;;;;;;;;5033311;28;20033;-78
2023/01/23 13:41:04;;;;;;;15.50;7.65;;;;;;;;;;5033479;28;20412;-80
2023/01/23 13:43:43;;;;;;;18.15;9.48;;;;;;;;;;5033775;28;20041;-79
2023/01/23 13:46:23;;;;;;;15.40;8.52;;;;;;;;;;5030458;28;20068;-80
2023/01/23 13:51:35;;;;;;;16.15;8.80;;;;;;;;;;5028995;28;20037;-79
2023/01/23 13:56:47;;;;;;;17.73;9.38;;;;;;;;;;5030909;28;20042;-79
2023/01/23 13:59:33;;;;;;;14.23;8.20;;;;;;;;;;5035299;28;20414;-79
2023/01/23 14:05:15;;;;;;;21.45;10.77;;;;;;;;;;5029827;28;20491;-79
2023/01/23 14:07:54;;;;;;;20.02;9.25;;;;;;;;;;5031446;28;20045;-79
2023/01/23 14:10:24;;;;;;;19.98;9.80;;;;;;;;;;5017054;28;20042;-79
2023/01/23 14:12:49;;;;;;;21.00;11.02;;;;;;;;;;5012991;28;20083;-79
2023/01/23 14:18:03;;;;;;;17.88;9.65;;;;;;;;;;5031752;28;20052;-78
2023/01/23 14:20:30;;;;;;;20.48;10.43;;;;;;;;;;5032481;28;20443;-79
2023/01/23 14:22:56;;;;;;;18.20;8.05;;;;;;;;;;5032837;28;20030;-79
2023/01/23 14:25:21;;;;;;;15.65;8.02;;;;;;;;;;5032960;28;20036;-80
2023/01/23 14:27:47;;;;;;;22.00;9.02;;;;;;;;;;5014787;28;20040;-78
2023/01/23 14:30:16;;;;;;;17.08;9.52;;;;;;;;;;5028089;28;20400;-78
2023/01/23 14:32:43;;;;;;;16.63;10.27;;;;;;;;;;5030918;28;20389;-78
2023/01/23 14:35:15;;;;;;;17.42;10.20;;;;;;;;;;5029378;28;20477;-78
2023/01/23 14:37:41;;;;;;;18.13;10.00;;;;;;;;;;5041159;28;20503;-80
2023/01/23 14:40:12;;;;;;;20.30;9.85;;;;;;;;;;5024025;28;20079;-79
2023/01/23 14:42:39;;;;;;;18.55;9.63;;;;;;;;;;5031840;28;20033;-78
2023/01/23 14:45:04;;;;;;;;;;;;;;;;;;5031424;28;20601;-80
2023/01/23 14:47:29;;;;;;;16.52;7.82;;;;;;;;;;5032039;28;19956;-80
2023/01/23 14:49:55;;;;;;;19.92;8.98;;;;;;;;;;5030496;28;20033;-80
2023/01/23 14:52:22;;;;;;;18.38;8.73;;;;;;;;;;5036868;28;20119;-78
2023/01/23 14:54:47;;;;;;;18.55;10.00;;;;;;;;;;5047180;28;20606;-80
2023/01/23 14:57:13;;;;;;;18.85;9.95;;;;;;;;;;5040422;28;20123;-79